createdAt,value
2022-11-30T00:00:59.476Z,5.19
2022-11-30T00:03:26.077Z,5.18
2022-11-30T00:05:52.648Z,5.23
2022-11-30T00:08:19.024Z,5.17
2022-11-30T00:10:45.421Z,5.10
2022-11-30T00:13:11.801Z,5.14
2022-11-30T00:15:38.228Z,5.14
2022-11-30T00:18:04.646Z,5.11
2022-11-30T00:20:31.041Z,5.11
2022-11-30T00:22:57.574Z,5.10
2022-11-30T00:25:24.545Z,5.16
2022-11-30T00:27:50.886Z,5.19
2022-11-30T00:30:17.237Z,5.13
2022-11-30T00:32:43.619Z,5.15
2022-11-30T00:35:09.967Z,5.12
2022-11-30T00:37:36.337Z,5.16
2022-11-30T00:40:02.755Z,5.19
2022-11-30T00:42:29.122Z,5.17
2022-11-30T00:44:55.505Z,5.14
2022-11-30T00:47:21.860Z,5.10
2022-11-30T00:49:48.204Z,5.14
2022-11-30T00:52:14.580Z,5.18
2022-11-30T00:54:40.924Z,5.22
2022-11-30T00:57:07.286Z,5.23
2022-11-30T00:59:33.635Z,5.22
2022-11-30T01:02:00.047Z,5.21
2022-11-30T01:04:26.397Z,5.24
2022-11-30T01:06:52.748Z,5.22
2022-11-30T01:09:19.146Z,5.20
2022-11-30T01:11:45.492Z,5.17
2022-11-30T01:14:11.868Z,5.17
2022-11-30T01:16:38.360Z,5.22
2022-11-30T01:19:04.807Z,5.22
2022-11-30T01:21:31.276Z,5.22
2022-11-30T01:23:57.694Z,5.15
2022-11-30T01:26:24.114Z,5.11
2022-11-30T01:28:51.734Z,5.14
2022-11-30T01:31:18.176Z,5.09
2022-11-30T01:33:48.592Z,5.12
2022-11-30T01:36:16.769Z,5.12
2022-11-30T01:38:44.853Z,5.16
2022-11-30T01:41:12.530Z,5.11
2022-11-30T01:43:42.377Z,5.11
2022-11-30T01:46:39.224Z,5.17
2022-11-30T01:49:08.597Z,5.13
2022-11-30T01:51:57.526Z,5.15
2022-11-30T01:54:32.455Z,5.13
2022-11-30T01:57:22.853Z,5.15
2022-11-30T01:59:49.468Z,5.18
2022-11-30T02:02:16.791Z,5.19
2022-11-30T02:04:43.182Z,5.16
2022-11-30T02:07:09.630Z,5.18
2022-11-30T02:09:40.412Z,5.22
2022-11-30T02:12:07.902Z,5.14
2022-11-30T02:14:34.253Z,5.19
2022-11-30T02:17:18.940Z,5.17
2022-11-30T02:19:58.805Z,5.20
2022-11-30T02:23:02.968Z,5.11
2022-11-30T02:25:35.385Z,5.15
2022-11-30T02:28:16.875Z,5.13
2022-11-30T02:30:44.573Z,5.17
2022-11-30T02:33:13.499Z,5.19
2022-11-30T02:35:41.196Z,5.17
2022-11-30T02:38:07.554Z,5.19
2022-11-30T02:40:33.946Z,5.20
2022-11-30T02:43:00.419Z,5.20
2022-11-30T02:45:31.500Z,5.23
2022-11-30T02:48:10.612Z,5.26
2022-11-30T02:50:42.613Z,5.21
2022-11-30T02:53:09.155Z,5.20
2022-11-30T02:55:35.523Z,5.15
2022-11-30T02:58:01.880Z,5.15
2022-11-30T03:00:28.264Z,5.17
2022-11-30T03:02:55.279Z,5.15
2022-11-30T03:05:21.694Z,5.17
2022-11-30T03:07:48.099Z,5.17
2022-11-30T03:10:14.540Z,5.19
2022-11-30T03:12:40.890Z,5.19
2022-11-30T03:15:07.488Z,5.24
2022-11-30T03:17:33.874Z,5.12
2022-11-30T03:20:00.263Z,5.14
2022-11-30T03:22:26.686Z,5.16
2022-11-30T03:24:53.092Z,5.16
2022-11-30T03:27:19.625Z,5.12
2022-11-30T03:29:45.983Z,5.14
2022-11-30T03:32:12.357Z,5.17
2022-11-30T03:34:38.702Z,5.16
2022-11-30T03:37:05.078Z,5.19
2022-11-30T03:39:31.426Z,5.22
2022-11-30T03:41:57.774Z,5.20
2022-11-30T03:44:24.140Z,5.24
2022-11-30T03:46:50.546Z,5.27
2022-11-30T03:49:16.979Z,5.30
2022-11-30T03:51:43.343Z,5.26
2022-11-30T03:54:09.677Z,5.30
2022-11-30T03:56:36.048Z,5.32
2022-11-30T03:59:02.427Z,5.29
2022-11-30T04:01:28.885Z,5.25
2022-11-30T04:03:55.311Z,5.28
2022-11-30T04:06:21.679Z,5.27
2022-11-30T04:08:48.023Z,5.27
2022-11-30T04:11:14.572Z,5.32
2022-11-30T04:13:41.339Z,5.33
2022-11-30T04:16:08.097Z,5.34
2022-11-30T04:18:35.068Z,5.31
2022-11-30T04:21:01.527Z,5.28
2022-11-30T04:23:32.949Z,5.26
2022-11-30T04:25:59.440Z,5.24
2022-11-30T04:28:25.794Z,5.22
2022-11-30T04:30:53.238Z,5.20
2022-11-30T04:33:19.676Z,5.23
2022-11-30T04:35:48.116Z,5.21
2022-11-30T04:38:14.503Z,5.20
2022-11-30T04:40:41.696Z,5.19
2022-11-30T04:43:08.287Z,5.15
2022-11-30T04:45:35.764Z,5.14
2022-11-30T04:48:02.835Z,5.13
2022-11-30T04:50:29.226Z,5.10
2022-11-30T04:52:56.225Z,5.17
2022-11-30T04:55:22.709Z,5.14
2022-11-30T04:57:49.210Z,5.13
2022-11-30T05:00:16.674Z,5.14
2022-11-30T05:02:47.553Z,5.11
2022-11-30T05:05:18.451Z,5.11
2022-11-30T05:07:44.929Z,5.11
2022-11-30T05:10:11.313Z,5.10
2022-11-30T05:12:37.672Z,5.15
2022-11-30T05:15:04.440Z,5.14
2022-11-30T05:17:30.788Z,5.18
2022-11-30T05:19:57.125Z,5.11
2022-11-30T05:22:23.478Z,5.14
2022-11-30T05:24:49.960Z,5.12
2022-11-30T05:27:22.202Z,5.12
2022-11-30T05:29:48.971Z,5.15
2022-11-30T05:32:15.360Z,5.10
2022-11-30T05:34:50.567Z,5.12
2022-11-30T05:37:17.923Z,5.09
2022-11-30T05:39:44.272Z,5.13
2022-11-30T05:42:10.740Z,5.10
2022-11-30T05:44:37.180Z,5.11
2022-11-30T05:47:03.627Z,5.10
2022-11-30T05:49:30.117Z,5.13
2022-11-30T05:51:56.594Z,5.12
2022-11-30T05:54:22.960Z,5.11
2022-11-30T05:56:54.427Z,5.11
2022-11-30T05:59:21.520Z,5.15
2022-11-30T06:01:47.972Z,5.15
2022-11-30T06:04:14.452Z,5.20
2022-11-30T06:06:40.820Z,5.20
2022-11-30T06:09:07.184Z,5.20
2022-11-30T06:11:33.618Z,5.17
2022-11-30T06:13:59.996Z,5.23
2022-11-30T06:16:26.400Z,5.23
2022-11-30T06:18:53.400Z,5.26
2022-11-30T06:21:24.150Z,5.25
2022-11-30T06:23:51.385Z,5.29
2022-11-30T06:26:17.736Z,5.26
2022-11-30T06:28:47.850Z,5.29
2022-11-30T06:31:15.131Z,5.32
2022-11-30T06:33:41.552Z,5.26
2022-11-30T06:36:08.169Z,5.27
2022-11-30T06:38:34.566Z,5.30
2022-11-30T06:41:08.457Z,5.27
2022-11-30T06:43:35.930Z,5.33
2022-11-30T06:46:03.485Z,5.30
2022-11-30T06:48:30.005Z,5.30
2022-11-30T06:50:56.415Z,5.32
2022-11-30T06:53:22.777Z,5.29
2022-11-30T06:55:49.131Z,5.27
2022-11-30T06:58:15.500Z,5.33
2022-11-30T07:00:42.715Z,5.33
2022-11-30T07:03:10.492Z,5.32
2022-11-30T07:05:41.042Z,5.32
2022-11-30T07:08:07.399Z,5.32
2022-11-30T07:10:33.849Z,5.32
2022-11-30T07:13:00.606Z,5.38
2022-11-30T07:15:26.950Z,5.40
2022-11-30T07:17:53.323Z,5.34
2022-11-30T07:20:19.663Z,5.38
2022-11-30T07:22:46.059Z,5.38
2022-11-30T07:25:31.131Z,5.33
2022-11-30T07:27:57.492Z,5.38
2022-11-30T07:30:23.833Z,5.35
2022-11-30T07:32:50.258Z,5.29
2022-11-30T07:35:16.740Z,5.33
2022-11-30T07:37:43.089Z,5.34
2022-11-30T07:40:09.796Z,5.37
2022-11-30T07:42:36.149Z,5.38
2022-11-30T07:45:02.523Z,5.39
2022-11-30T07:47:28.882Z,5.41
2022-11-30T07:49:55.278Z,5.39
2022-11-30T07:52:21.794Z,5.34
2022-11-30T07:54:48.521Z,5.34
2022-11-30T07:57:15.067Z,5.37
2022-11-30T07:59:41.476Z,5.33
2022-11-30T08:02:10.406Z,5.30
2022-11-30T08:04:36.881Z,5.32
2022-11-30T08:07:03.282Z,5.31
2022-11-30T08:09:29.624Z,5.31
2022-11-30T08:11:55.974Z,5.33
2022-11-30T08:14:22.333Z,5.33
2022-11-30T08:16:49.020Z,5.37
2022-11-30T08:19:15.525Z,5.35
2022-11-30T08:21:41.891Z,5.32
2022-11-30T08:24:09.838Z,5.37
2022-11-30T08:26:36.318Z,5.35
2022-11-30T08:29:02.678Z,5.42
2022-11-30T08:31:33.859Z,5.43
2022-11-30T08:34:18.587Z,5.47
2022-11-30T08:36:47.264Z,5.36
2022-11-30T08:39:18.103Z,5.40
2022-11-30T08:41:44.473Z,5.44
2022-11-30T08:44:11.058Z,5.43
2022-11-30T08:46:53.859Z,5.46
2022-11-30T08:49:22.919Z,5.52
2022-11-30T08:54:38.978Z,5.57
2022-11-30T08:57:05.319Z,5.57
2022-11-30T08:59:32.034Z,5.54
2022-11-30T09:01:58.430Z,5.51
2022-11-30T09:04:24.910Z,5.53
2022-11-30T09:06:51.313Z,5.52
2022-11-30T09:09:17.656Z,5.52
2022-11-30T09:11:44.046Z,5.58
2022-11-30T09:14:10.470Z,5.56
2022-11-30T09:16:36.832Z,5.57
2022-11-30T09:19:03.512Z,5.51
2022-11-30T09:21:30.406Z,5.49
2022-11-30T09:23:56.976Z,5.48
2022-11-30T09:26:25.114Z,5.51
2022-11-30T09:28:51.836Z,5.52
2022-11-30T09:31:28.119Z,5.56
2022-11-30T09:33:58.066Z,5.53
2022-11-30T09:36:27.125Z,5.54
2022-11-30T09:38:54.143Z,5.59
2022-11-30T09:41:23.212Z,5.56
2022-11-30T09:43:52.588Z,5.60
2022-11-30T09:46:18.997Z,5.58
2022-11-30T09:48:54.344Z,5.58
2022-11-30T09:51:48.873Z,5.64
2022-11-30T09:54:16.830Z,5.63
2022-11-30T09:56:43.792Z,5.65
2022-11-30T09:59:21.101Z,5.62
2022-11-30T10:01:52.072Z,5.62
2022-11-30T10:04:29.768Z,5.65
2022-11-30T10:07:04.396Z,5.68
2022-11-30T10:09:40.477Z,5.73
2022-11-30T10:12:36.272Z,5.71
2022-11-30T10:15:05.433Z,5.71
2022-11-30T10:17:46.408Z,5.74
2022-11-30T10:20:28.028Z,5.77
2022-11-30T10:23:07.500Z,5.70
2022-11-30T10:25:42.971Z,5.76
2022-11-30T10:28:45.711Z,5.76
2022-11-30T10:31:07.740Z,5.67
2022-11-30T10:33:38.835Z,5.69
2022-11-30T10:36:15.017Z,5.72
2022-11-30T10:38:44.853Z,5.73
2022-11-30T10:41:21.621Z,5.68
2022-11-30T10:44:09.723Z,5.68
2022-11-30T10:46:43.791Z,5.73
2022-11-30T10:49:13.424Z,5.82
2022-11-30T10:51:41.522Z,5.83
2022-11-30T10:54:15.342Z,5.79
2022-11-30T10:56:41.782Z,5.73
2022-11-30T10:59:29.297Z,5.75
2022-11-30T11:01:55.703Z,5.69
2022-11-30T11:04:25.774Z,5.77
2022-11-30T11:07:01.490Z,5.81
2022-11-30T11:09:40.650Z,5.80
2022-11-30T11:12:13.325Z,5.84
2022-11-30T11:14:39.696Z,5.88
2022-11-30T11:17:21.724Z,5.82
2022-11-30T11:19:48.896Z,5.84
2022-11-30T11:22:29.702Z,5.82
2022-11-30T11:25:09.037Z,5.82
2022-11-30T11:27:39.816Z,5.72
2022-11-30T11:30:35.925Z,5.81
2022-11-30T11:33:11.886Z,5.82
2022-11-30T11:35:42.278Z,5.85
2022-11-30T11:38:30.899Z,5.84
2022-11-30T11:41:02.371Z,5.83
2022-11-30T11:43:31.188Z,5.83
2022-11-30T11:46:17.868Z,5.81
2022-11-30T11:49:07.903Z,5.83
2022-11-30T11:51:36.322Z,5.79
2022-11-30T11:54:24.608Z,5.81
2022-11-30T11:56:50.976Z,5.84
2022-11-30T11:59:54.674Z,5.83
2022-11-30T12:02:31.141Z,5.82
2022-11-30T12:05:16.154Z,5.84
2022-11-30T12:07:48.655Z,5.87
2022-11-30T12:13:19.093Z,5.87
2022-11-30T12:16:07.583Z,5.81
2022-11-30T12:18:42.091Z,5.81
2022-11-30T12:21:11.680Z,5.84
2022-11-30T12:23:50.035Z,5.89
2022-11-30T12:26:37.129Z,5.92
2022-11-30T12:29:29.760Z,5.88
2022-11-30T12:32:08.442Z,5.87
2022-11-30T12:34:56.075Z,5.84
2022-11-30T12:37:59.963Z,5.79
2022-11-30T12:40:35.317Z,5.77
2022-11-30T12:43:07.202Z,5.74
2022-11-30T12:45:43.201Z,5.77
2022-11-30T12:48:28.046Z,5.80
2022-11-30T12:51:03.820Z,5.85
2022-11-30T12:53:35.244Z,5.88
2022-11-30T12:56:11.146Z,5.82
2022-11-30T12:58:42.545Z,5.77
2022-11-30T13:01:44.115Z,5.73
2022-11-30T13:04:27.309Z,5.75
2022-11-30T13:07:11.693Z,5.67
2022-11-30T13:09:45.481Z,5.71
2022-11-30T13:12:13.803Z,5.71
2022-11-30T13:14:40.560Z,5.74
2022-11-30T13:17:11.751Z,5.76
2022-11-30T13:20:04.542Z,5.78
2022-11-30T13:22:52.988Z,5.80
2022-11-30T13:26:05.769Z,5.78
2022-11-30T13:28:35.767Z,5.87
2022-11-30T13:31:27.774Z,5.83
2022-11-30T13:33:54.270Z,5.84
2022-11-30T13:36:35.727Z,5.81
2022-11-30T13:39:14.353Z,5.80
2022-11-30T13:41:40.724Z,5.80
2022-11-30T13:44:32.963Z,5.80
2022-11-30T13:47:23.511Z,5.85
2022-11-30T13:49:54.934Z,5.80
2022-11-30T13:52:44.716Z,5.75
2022-11-30T13:55:35.955Z,5.73
2022-11-30T13:58:05.703Z,5.74
2022-11-30T14:00:32.088Z,5.80
2022-11-30T14:03:22.615Z,5.75
2022-11-30T14:05:53.105Z,5.78
2022-11-30T14:08:22.302Z,5.76
2022-11-30T14:10:49.603Z,5.78
2022-11-30T14:13:25.149Z,5.73
2022-11-30T14:15:55.349Z,5.79
2022-11-30T14:18:24.056Z,5.73
2022-11-30T14:21:00.683Z,5.77
2022-11-30T14:24:05.648Z,5.74
2022-11-30T14:26:39.928Z,5.76
2022-11-30T14:29:12.402Z,5.72
2022-11-30T14:32:10.149Z,5.71
2022-11-30T14:34:39.065Z,5.67
2022-11-30T14:37:23.264Z,5.65
2022-11-30T14:39:50.452Z,5.61
2022-11-30T14:42:25.088Z,5.64
2022-11-30T14:44:51.890Z,5.63
2022-11-30T14:47:23.614Z,5.65
2022-11-30T14:49:55.016Z,5.70
2022-11-30T14:52:45.913Z,5.70
2022-11-30T14:55:27.645Z,5.66
2022-11-30T14:58:06.892Z,5.65
2022-11-30T15:00:37.732Z,5.66
2022-11-30T15:03:05.181Z,5.65
2022-11-30T15:05:31.655Z,5.59
2022-11-30T15:07:58.185Z,5.57
2022-11-30T15:10:34.150Z,5.56
2022-11-30T15:13:00.620Z,5.58
2022-11-30T15:15:27.817Z,5.59
2022-11-30T15:17:55.101Z,5.64
2022-11-30T15:20:37.705Z,5.59
2022-11-30T15:23:04.074Z,5.58
2022-11-30T15:25:37.989Z,5.59
2022-11-30T15:28:05.028Z,5.61
2022-11-30T15:30:33.036Z,5.67
2022-11-30T15:32:59.385Z,5.67
2022-11-30T15:35:34.330Z,5.57
2022-11-30T15:38:24.438Z,5.52
2022-11-30T15:40:54.573Z,5.54
2022-11-30T15:43:23.861Z,5.58
2022-11-30T15:45:57.720Z,5.59
2022-11-30T15:48:29.949Z,5.56
2022-11-30T15:50:56.544Z,5.47
2022-11-30T15:53:30.996Z,5.46
2022-11-30T15:55:59.524Z,5.49
2022-11-30T15:58:33.203Z,5.41
2022-11-30T16:01:00.599Z,5.46
2022-11-30T16:03:26.985Z,5.47
2022-11-30T16:05:57.955Z,5.44
2022-11-30T16:08:24.589Z,5.40
2022-11-30T16:10:51.233Z,5.37
2022-11-30T16:13:18.826Z,5.38
2022-11-30T16:15:46.807Z,5.37
2022-11-30T16:18:26.161Z,5.41
2022-11-30T16:20:58.508Z,5.44
2022-11-30T16:23:25.878Z,5.46
2022-11-30T16:25:52.371Z,5.37
2022-11-30T16:28:19.105Z,5.29
2022-11-30T16:30:45.782Z,5.34
2022-11-30T16:33:17.372Z,5.33
2022-11-30T16:35:53.287Z,5.30
2022-11-30T16:38:19.796Z,5.37
2022-11-30T16:40:46.194Z,5.38
2022-11-30T16:43:12.644Z,5.36
2022-11-30T16:45:39.503Z,5.33
2022-11-30T16:48:06.424Z,5.27
2022-11-30T16:50:34.598Z,5.36
2022-11-30T16:53:01.875Z,5.36
2022-11-30T16:55:30.760Z,5.32
2022-11-30T16:57:57.329Z,5.27
2022-11-30T17:00:23.787Z,5.27
2022-11-30T17:03:09.996Z,5.33
2022-11-30T17:05:36.511Z,5.38
2022-11-30T17:08:03.116Z,5.35
2022-11-30T17:10:29.578Z,5.38
2022-11-30T17:12:55.935Z,5.37
2022-11-30T17:15:23.193Z,5.36
2022-11-30T17:17:49.584Z,5.32
2022-11-30T17:20:16.470Z,5.34
2022-11-30T17:22:43.856Z,5.33
2022-11-30T17:25:18.277Z,5.37
2022-11-30T17:27:44.766Z,5.33
2022-11-30T17:30:12.183Z,5.32
2022-11-30T17:32:38.558Z,5.32
2022-11-30T17:35:05.247Z,5.33
2022-11-30T17:37:31.637Z,5.31
2022-11-30T17:39:58.768Z,5.29
2022-11-30T17:42:25.187Z,5.33
2022-11-30T17:44:51.539Z,5.33
2022-11-30T17:47:17.985Z,5.35
2022-11-30T17:49:44.355Z,5.35
2022-11-30T17:52:10.756Z,5.36
2022-11-30T17:54:37.130Z,5.30
2022-11-30T17:57:03.843Z,5.35
2022-11-30T17:59:30.182Z,5.26
2022-11-30T18:01:56.573Z,5.26
2022-11-30T18:04:23.099Z,5.27
2022-11-30T18:06:49.511Z,5.27
2022-11-30T18:09:16.108Z,5.24
2022-11-30T18:11:42.481Z,5.21
2022-11-30T18:14:08.855Z,5.22
2022-11-30T18:16:37.128Z,5.22
2022-11-30T18:19:08.288Z,5.22
2022-11-30T18:21:34.709Z,5.22
2022-11-30T18:24:01.073Z,5.21
2022-11-30T18:26:27.691Z,5.22
2022-11-30T18:28:55.536Z,5.25
2022-11-30T18:31:22.059Z,5.21
2022-11-30T18:33:48.859Z,5.18
2022-11-30T18:36:15.258Z,5.16
2022-11-30T18:38:41.684Z,5.18
2022-11-30T18:41:08.034Z,5.21
2022-11-30T18:43:34.706Z,5.21
2022-11-30T18:46:05.253Z,5.20
2022-11-30T18:48:31.702Z,5.15
2022-11-30T18:50:58.079Z,5.18
2022-11-30T18:53:24.493Z,5.18
2022-11-30T18:55:50.926Z,5.19
2022-11-30T18:58:17.317Z,5.18
2022-11-30T19:00:43.690Z,5.13
2022-11-30T19:03:10.104Z,5.11
2022-11-30T19:05:38.142Z,5.12
2022-11-30T19:08:06.365Z,5.10
2022-11-30T19:10:34.427Z,5.01
2022-11-30T19:13:01.643Z,4.90
2022-11-30T19:15:27.997Z,4.91
2022-11-30T19:17:55.085Z,4.86
2022-11-30T19:20:21.967Z,4.82
2022-11-30T19:22:48.354Z,4.81
2022-11-30T19:25:18.872Z,4.84
2022-11-30T19:27:45.670Z,4.81
2022-11-30T19:30:12.644Z,4.80
2022-11-30T19:32:38.989Z,4.75
2022-11-30T19:35:05.890Z,4.76
2022-11-30T19:37:32.252Z,4.79
2022-11-30T19:39:58.608Z,4.77
2022-11-30T19:42:25.033Z,4.73
2022-11-30T19:44:51.407Z,4.71
2022-11-30T19:47:17.775Z,4.76
2022-11-30T19:49:45.612Z,4.69
2022-11-30T19:52:12.017Z,4.66
2022-11-30T19:54:38.365Z,4.67
2022-11-30T19:57:04.709Z,4.63
2022-11-30T19:59:31.147Z,4.68
2022-11-30T20:01:57.572Z,4.67
2022-11-30T20:04:24.191Z,4.70
2022-11-30T20:06:50.560Z,4.67
2022-11-30T20:09:16.906Z,4.64
2022-11-30T20:11:43.340Z,4.67
2022-11-30T20:14:14.924Z,4.74
2022-11-30T20:16:41.311Z,4.71
2022-11-30T20:19:07.662Z,4.69
2022-11-30T20:21:34.753Z,4.75
2022-11-30T20:24:02.609Z,4.73
2022-11-30T20:26:30.814Z,4.73
2022-11-30T20:28:58.176Z,4.80
2022-11-30T20:31:24.763Z,4.81
2022-11-30T20:33:51.322Z,4.72
2022-11-30T20:36:18.280Z,4.71
2022-11-30T20:38:44.732Z,4.72
2022-11-30T20:41:12.799Z,4.73
2022-11-30T20:43:39.361Z,4.72
2022-11-30T20:46:33.003Z,4.72
2022-11-30T20:48:59.783Z,4.72
2022-11-30T20:51:32.055Z,4.66
2022-11-30T20:54:00.051Z,4.70
2022-11-30T20:56:26.416Z,4.73
2022-11-30T20:58:52.756Z,4.74
2022-11-30T21:01:20.849Z,4.78
2022-11-30T21:03:47.332Z,4.70
2022-11-30T21:06:13.864Z,4.71
2022-11-30T21:08:40.511Z,4.69
2022-11-30T21:11:12.069Z,4.56
2022-11-30T21:13:38.705Z,4.58
2022-11-30T21:16:07.170Z,4.61
2022-11-30T21:18:34.639Z,4.64
2022-11-30T21:21:08.420Z,4.69
2022-11-30T21:23:34.943Z,4.55
2022-11-30T21:26:05.421Z,4.58
2022-11-30T21:28:37.665Z,4.62
2022-11-30T21:31:04.710Z,4.58
2022-11-30T21:33:31.284Z,4.58
2022-11-30T21:35:57.626Z,4.60
2022-11-30T21:38:23.988Z,4.53
2022-11-30T21:40:58.137Z,4.55
2022-11-30T21:43:24.637Z,4.60
2022-11-30T21:46:01.714Z,4.60
2022-11-30T21:48:29.146Z,4.61
2022-11-30T21:50:59.399Z,4.60
2022-11-30T21:53:26.288Z,4.54
2022-11-30T21:55:55.666Z,4.58
2022-11-30T21:58:22.488Z,4.54
2022-11-30T22:00:56.217Z,4.55
2022-11-30T22:03:22.829Z,4.54
2022-11-30T22:06:02.501Z,4.55
2022-11-30T22:08:29.231Z,4.52
2022-11-30T22:11:04.545Z,4.50
2022-11-30T22:13:31.217Z,4.50
2022-11-30T22:15:59.159Z,4.51
2022-11-30T22:18:25.802Z,4.51
2022-11-30T22:20:52.179Z,4.51
2022-11-30T22:23:18.525Z,4.52
2022-11-30T22:25:44.886Z,4.51
2022-11-30T22:28:11.237Z,4.49
2022-11-30T22:30:37.591Z,4.49
2022-11-30T22:33:03.964Z,4.48
2022-11-30T22:35:30.329Z,4.42
2022-11-30T22:37:56.683Z,4.40
2022-11-30T22:40:23.079Z,4.42
2022-11-30T22:42:49.401Z,4.42
2022-11-30T22:45:15.823Z,4.43
2022-11-30T22:47:42.176Z,4.39
2022-11-30T22:50:08.836Z,4.39
2022-11-30T22:53:01.581Z,4.43
2022-11-30T22:55:21.612Z,4.41
2022-11-30T22:57:48.063Z,4.43
2022-11-30T23:00:15.209Z,4.42
2022-11-30T23:02:41.624Z,4.42
2022-11-30T23:05:08.212Z,4.40
2022-11-30T23:07:34.642Z,4.42
2022-11-30T23:10:01.031Z,4.43
2022-11-30T23:12:57.383Z,4.39
2022-11-30T23:15:13.816Z,4.41
2022-11-30T23:17:40.210Z,4.34
2022-11-30T23:20:07.103Z,4.38
2022-11-30T23:22:35.596Z,4.40
2022-11-30T23:25:01.942Z,4.31
2022-11-30T23:27:28.316Z,4.32
2022-11-30T23:29:54.674Z,4.33
2022-11-30T23:32:21.131Z,4.37
2022-11-30T23:34:50.680Z,4.37
2022-11-30T23:37:17.288Z,4.36
2022-11-30T23:39:43.660Z,4.36
2022-11-30T23:42:10.075Z,4.39
2022-11-30T23:44:36.425Z,4.38
2022-11-30T23:47:03.736Z,4.34
2022-11-30T23:49:30.157Z,4.37
2022-11-30T23:51:58.330Z,4.33
2022-11-30T23:54:24.690Z,4.32
2022-11-30T23:56:51.137Z,4.26
2022-11-30T23:59:17.543Z,4.13
